sensor_id;sensor_type;location;lat;lon;timestamp;P1;durP1;ratioP1;P2;durP2;ratioP2
62957;SDS011;49056;48.352;10.926;2022-10-31T00:01:48;3.87;;;2.28;;
62957;SDS011;49056;48.352;10.926;2022-10-31T00:07:09;4.03;;;2.12;;
62957;SDS011;49056;48.352;10.926;2022-10-31T00:12:29;6.20;;;2.57;;
62957;SDS011;49056;48.352;10.926;2022-10-31T00:17:50;3.80;;;2.50;;
62957;SDS011;49056;48.352;10.926;2022-10-31T00:23:10;4.23;;;2.37;;
62957;SDS011;49056;48.352;10.926;2022-10-31T00:28:31;4.10;;;2.65;;
62957;SDS011;49056;48.352;10.926;2022-10-31T00:33:51;3.47;;;2.25;;
62957;SDS011;49056;48.352;10.926;2022-10-31T00:39:12;3.83;;;2.47;;
62957;SDS011;49056;48.352;10.926;2022-10-31T00:44:32;5.65;;;2.72;;
62957;SDS011;49056;48.352;10.926;2022-10-31T00:49:53;3.53;;;2.13;;
62957;SDS011;49056;48.352;10.926;2022-10-31T00:55:13;4.60;;;2.73;;
62957;SDS011;49056;48.352;10.926;2022-10-31T01:00:33;3.57;;;2.20;;
62957;SDS011;49056;48.352;10.926;2022-10-31T01:11:19;4.43;;;2.45;;
62957;SDS011;49056;48.352;10.926;2022-10-31T01:16:39;3.25;;;2.30;;
62957;SDS011;49056;48.352;10.926;2022-10-31T01:22:00;3.55;;;2.35;;
62957;SDS011;49056;48.352;10.926;2022-10-31T01:27:20;4.33;;;2.87;;
62957;SDS011;49056;48.352;10.926;2022-10-31T01:32:40;6.13;;;2.63;;
62957;SDS011;49056;48.352;10.926;2022-10-31T01:38:01;5.43;;;3.00;;
62957;SDS011;49056;48.352;10.926;2022-10-31T01:43:21;4.10;;;2.35;;
62957;SDS011;49056;48.352;10.926;2022-10-31T01:48:42;3.90;;;2.17;;
62957;SDS011;49056;48.352;10.926;2022-10-31T01:54:06;3.03;;;2.33;;
62957;SDS011;49056;48.352;10.926;2022-10-31T01:59:28;3.70;;;2.40;;
62957;SDS011;49056;48.352;10.926;2022-10-31T02:04:49;5.32;;;2.42;;
62957;SDS011;49056;48.352;10.926;2022-10-31T02:10:10;4.50;;;2.80;;
62957;SDS011;49056;48.352;10.926;2022-10-31T02:15:31;3.70;;;2.67;;
62957;SDS011;49056;48.352;10.926;2022-10-31T02:32:20;2.95;;;2.10;;
62957;SDS011;49056;48.352;10.926;2022-10-31T02:48:40;3.67;;;2.15;;
62957;SDS011;49056;48.352;10.926;2022-10-31T02:54:01;4.07;;;2.60;;
62957;SDS011;49056;48.352;10.926;2022-10-31T02:59:22;4.10;;;2.35;;
62957;SDS011;49056;48.352;10.926;2022-10-31T03:04:49;3.65;;;2.08;;
62957;SDS011;49056;48.352;10.926;2022-10-31T03:10:16;3.17;;;2.28;;
62957;SDS011;49056;48.352;10.926;2022-10-31T03:15:45;3.65;;;2.10;;
62957;SDS011;49056;48.352;10.926;2022-10-31T03:21:16;5.32;;;2.60;;
62957;SDS011;49056;48.352;10.926;2022-10-31T03:26:40;4.18;;;1.92;;
62957;SDS011;49056;48.352;10.926;2022-10-31T03:32:02;4.95;;;2.45;;
62957;SDS011;49056;48.352;10.926;2022-10-31T03:37:23;3.90;;;1.75;;
62957;SDS011;49056;48.352;10.926;2022-10-31T03:42:46;4.90;;;2.30;;
62957;SDS011;49056;48.352;10.926;2022-10-31T03:48:11;2.30;;;1.50;;
62957;SDS011;49056;48.352;10.926;2022-10-31T03:53:33;2.70;;;1.67;;
62957;SDS011;49056;48.352;10.926;2022-10-31T03:59:04;2.67;;;1.62;;
62957;SDS011;49056;48.352;10.926;2022-10-31T04:04:26;2.33;;;1.52;;
62957;SDS011;49056;48.352;10.926;2022-10-31T04:09:46;3.42;;;1.70;;
62957;SDS011;49056;48.352;10.926;2022-10-31T04:15:08;2.03;;;1.50;;
62957;SDS011;49056;48.352;10.926;2022-10-31T04:20:30;2.67;;;1.65;;
62957;SDS011;49056;48.352;10.926;2022-10-31T04:25:50;2.58;;;1.70;;
62957;SDS011;49056;48.352;10.926;2022-10-31T04:31:11;3.42;;;1.70;;
62957;SDS011;49056;48.352;10.926;2022-10-31T04:36:31;3.12;;;1.33;;
62957;SDS011;49056;48.352;10.926;2022-10-31T04:41:52;2.40;;;1.53;;
62957;SDS011;49056;48.352;10.926;2022-10-31T04:47:12;4.30;;;1.60;;
62957;SDS011;49056;48.352;10.926;2022-10-31T04:52:38;2.25;;;1.40;;
62957;SDS011;49056;48.352;10.926;2022-10-31T04:57:58;3.00;;;1.70;;
62957;SDS011;49056;48.352;10.926;2022-10-31T05:03:19;2.70;;;1.52;;
62957;SDS011;49056;48.352;10.926;2022-10-31T05:08:39;2.30;;;1.58;;
62957;SDS011;49056;48.352;10.926;2022-10-31T05:14:00;4.10;;;1.67;;
62957;SDS011;49056;48.352;10.926;2022-10-31T05:19:20;2.33;;;1.47;;
62957;SDS011;49056;48.352;10.926;2022-10-31T05:24:40;2.95;;;1.35;;
62957;SDS011;49056;48.352;10.926;2022-10-31T05:30:01;2.73;;;1.70;;
62957;SDS011;49056;48.352;10.926;2022-10-31T05:35:22;3.40;;;1.70;;
62957;SDS011;49056;48.352;10.926;2022-10-31T05:40:43;3.10;;;1.73;;
62957;SDS011;49056;48.352;10.926;2022-10-31T05:46:03;2.93;;;1.43;;
62957;SDS011;49056;48.352;10.926;2022-10-31T05:51:24;3.22;;;1.67;;
62957;SDS011;49056;48.352;10.926;2022-10-31T05:56:44;2.47;;;1.20;;
62957;SDS011;49056;48.352;10.926;2022-10-31T06:02:04;2.60;;;1.42;;
62957;SDS011;49056;48.352;10.926;2022-10-31T06:07:25;3.50;;;1.75;;
62957;SDS011;49056;48.352;10.926;2022-10-31T06:12:45;4.05;;;2.20;;
62957;SDS011;49056;48.352;10.926;2022-10-31T06:18:05;2.67;;;1.40;;
62957;SDS011;49056;48.352;10.926;2022-10-31T06:23:26;1.63;;;1.33;;
62957;SDS011;49056;48.352;10.926;2022-10-31T06:28:46;2.42;;;1.42;;
62957;SDS011;49056;48.352;10.926;2022-10-31T06:34:06;5.03;;;1.55;;
62957;SDS011;49056;48.352;10.926;2022-10-31T06:39:27;4.03;;;1.87;;
62957;SDS011;49056;48.352;10.926;2022-10-31T06:44:47;2.22;;;1.45;;
62957;SDS011;49056;48.352;10.926;2022-10-31T06:50:07;2.97;;;1.40;;
62957;SDS011;49056;48.352;10.926;2022-10-31T06:55:28;2.33;;;1.10;;
62957;SDS011;49056;48.352;10.926;2022-10-31T07:00:48;3.12;;;1.10;;
62957;SDS011;49056;48.352;10.926;2022-10-31T07:06:09;2.80;;;1.50;;
62957;SDS011;49056;48.352;10.926;2022-10-31T07:11:29;2.15;;;1.35;;
62957;SDS011;49056;48.352;10.926;2022-10-31T07:16:50;3.62;;;1.15;;
62957;SDS011;49056;48.352;10.926;2022-10-31T07:22:10;3.37;;;1.30;;
62957;SDS011;49056;48.352;10.926;2022-10-31T07:27:40;3.50;;;1.07;;
62957;SDS011;49056;48.352;10.926;2022-10-31T07:33:01;1.95;;;0.88;;
62957;SDS011;49056;48.352;10.926;2022-10-31T07:38:22;1.62;;;1.00;;
62957;SDS011;49056;48.352;10.926;2022-10-31T07:43:42;2.80;;;1.03;;
62957;SDS011;49056;48.352;10.926;2022-10-31T07:49:03;1.70;;;0.98;;
62957;SDS011;49056;48.352;10.926;2022-10-31T07:54:23;2.10;;;1.27;;
62957;SDS011;49056;48.352;10.926;2022-10-31T07:59:43;3.93;;;1.10;;
62957;SDS011;49056;48.352;10.926;2022-10-31T08:05:04;2.17;;;1.07;;
62957;SDS011;49056;48.352;10.926;2022-10-31T08:10:25;1.35;;;0.85;;
62957;SDS011;49056;48.352;10.926;2022-10-31T08:15:45;1.85;;;1.02;;
62957;SDS011;49056;48.352;10.926;2022-10-31T08:21:10;2.10;;;0.95;;
62957;SDS011;49056;48.352;10.926;2022-10-31T08:26:30;1.65;;;0.98;;
62957;SDS011;49056;48.352;10.926;2022-10-31T08:31:51;3.13;;;1.07;;
62957;SDS011;49056;48.352;10.926;2022-10-31T08:37:11;2.00;;;1.00;;
62957;SDS011;49056;48.352;10.926;2022-10-31T08:42:32;4.15;;;1.33;;
62957;SDS011;49056;48.352;10.926;2022-10-31T08:47:56;2.58;;;1.00;;
62957;SDS011;49056;48.352;10.926;2022-10-31T08:53:17;2.85;;;1.30;;
62957;SDS011;49056;48.352;10.926;2022-10-31T08:58:38;2.92;;;1.20;;
62957;SDS011;49056;48.352;10.926;2022-10-31T09:03:58;1.23;;;0.90;;
62957;SDS011;49056;48.352;10.926;2022-10-31T09:09:18;2.22;;;1.35;;
62957;SDS011;49056;48.352;10.926;2022-10-31T09:14:39;4.55;;;1.40;;
62957;SDS011;49056;48.352;10.926;2022-10-31T09:19:59;1.97;;;1.43;;
62957;SDS011;49056;48.352;10.926;2022-10-31T09:25:19;2.73;;;1.30;;
62957;SDS011;49056;48.352;10.926;2022-10-31T09:30:39;4.28;;;1.92;;
62957;SDS011;49056;48.352;10.926;2022-10-31T09:36:00;3.35;;;2.00;;
62957;SDS011;49056;48.352;10.926;2022-10-31T09:41:34;6.17;;;2.03;;
62957;SDS011;49056;48.352;10.926;2022-10-31T09:47:13;3.95;;;2.40;;
62957;SDS011;49056;48.352;10.926;2022-10-31T09:52:38;5.40;;;2.62;;
62957;SDS011;49056;48.352;10.926;2022-10-31T09:58:01;4.05;;;2.30;;
62957;SDS011;49056;48.352;10.926;2022-10-31T10:03:44;3.97;;;1.87;;
62957;SDS011;49056;48.352;10.926;2022-10-31T10:09:07;4.00;;;2.17;;
62957;SDS011;49056;48.352;10.926;2022-10-31T10:25:39;4.28;;;2.70;;
62957;SDS011;49056;48.352;10.926;2022-10-31T10:31:08;5.05;;;2.80;;
62957;SDS011;49056;48.352;10.926;2022-10-31T10:36:32;4.35;;;2.87;;
62957;SDS011;49056;48.352;10.926;2022-10-31T10:41:54;5.35;;;3.10;;
62957;SDS011;49056;48.352;10.926;2022-10-31T10:47:36;5.55;;;2.75;;
62957;SDS011;49056;48.352;10.926;2022-10-31T10:58:41;5.10;;;2.58;;
62957;SDS011;49056;48.352;10.926;2022-10-31T11:04:02;3.80;;;2.70;;
62957;SDS011;49056;48.352;10.926;2022-10-31T11:09:23;5.20;;;2.80;;
62957;SDS011;49056;48.352;10.926;2022-10-31T11:14:44;7.17;;;2.87;;
62957;SDS011;49056;48.352;10.926;2022-10-31T11:25:31;5.73;;;3.57;;
62957;SDS011;49056;48.352;10.926;2022-10-31T11:30:53;6.07;;;2.95;;
62957;SDS011;49056;48.352;10.926;2022-10-31T11:36:24;4.75;;;2.90;;
62957;SDS011;49056;48.352;10.926;2022-10-31T11:41:45;7.05;;;3.05;;
62957;SDS011;49056;48.352;10.926;2022-10-31T11:47:11;6.37;;;3.90;;
62957;SDS011;49056;48.352;10.926;2022-10-31T11:52:32;7.05;;;3.53;;
62957;SDS011;49056;48.352;10.926;2022-10-31T11:57:53;6.95;;;3.22;;
62957;SDS011;49056;48.352;10.926;2022-10-31T12:08:35;6.33;;;3.63;;
62957;SDS011;49056;48.352;10.926;2022-10-31T12:30:30;5.45;;;2.55;;
62957;SDS011;49056;48.352;10.926;2022-10-31T12:58:21;5.93;;;3.08;;
62957;SDS011;49056;48.352;10.926;2022-10-31T13:03:44;6.45;;;3.30;;
62957;SDS011;49056;48.352;10.926;2022-10-31T13:09:06;5.97;;;3.30;;
62957;SDS011;49056;48.352;10.926;2022-10-31T13:14:39;5.82;;;2.67;;
62957;SDS011;49056;48.352;10.926;2022-10-31T13:25:33;8.13;;;3.33;;
62957;SDS011;49056;48.352;10.926;2022-10-31T13:30:56;5.05;;;3.25;;
62957;SDS011;49056;48.352;10.926;2022-10-31T13:36:23;5.90;;;3.60;;
62957;SDS011;49056;48.352;10.926;2022-10-31T13:47:26;4.57;;;2.75;;
62957;SDS011;49056;48.352;10.926;2022-10-31T13:52:47;4.15;;;2.90;;
62957;SDS011;49056;48.352;10.926;2022-10-31T14:03:40;6.55;;;3.60;;
62957;SDS011;49056;48.352;10.926;2022-10-31T14:09:01;6.30;;;3.03;;
62957;SDS011;49056;48.352;10.926;2022-10-31T14:14:23;5.43;;;2.92;;
62957;SDS011;49056;48.352;10.926;2022-10-31T14:19:56;5.62;;;3.30;;
62957;SDS011;49056;48.352;10.926;2022-10-31T14:30:52;4.90;;;2.40;;
62957;SDS011;49056;48.352;10.926;2022-10-31T14:36:17;5.70;;;3.60;;
62957;SDS011;49056;48.352;10.926;2022-10-31T14:52:38;5.07;;;2.85;;
62957;SDS011;49056;48.352;10.926;2022-10-31T14:58:01;6.60;;;3.15;;
62957;SDS011;49056;48.352;10.926;2022-10-31T15:08:49;5.00;;;3.40;;
62957;SDS011;49056;48.352;10.926;2022-10-31T15:14:17;4.65;;;2.95;;
62957;SDS011;49056;48.352;10.926;2022-10-31T15:19:42;6.28;;;3.47;;
62957;SDS011;49056;48.352;10.926;2022-10-31T15:25:03;4.95;;;3.30;;
62957;SDS011;49056;48.352;10.926;2022-10-31T15:30:26;4.60;;;2.62;;
62957;SDS011;49056;48.352;10.926;2022-10-31T15:35:54;4.70;;;3.08;;
62957;SDS011;49056;48.352;10.926;2022-10-31T15:41:35;4.85;;;2.80;;
62957;SDS011;49056;48.352;10.926;2022-10-31T15:47:00;5.43;;;3.35;;
62957;SDS011;49056;48.352;10.926;2022-10-31T15:52:28;4.60;;;2.50;;
62957;SDS011;49056;48.352;10.926;2022-10-31T15:57:50;4.12;;;2.83;;
62957;SDS011;49056;48.352;10.926;2022-10-31T16:08:35;4.30;;;2.60;;
62957;SDS011;49056;48.352;10.926;2022-10-31T16:13:56;5.90;;;2.60;;
62957;SDS011;49056;48.352;10.926;2022-10-31T16:25:24;4.18;;;2.55;;
62957;SDS011;49056;48.352;10.926;2022-10-31T16:41:06;3.10;;;2.42;;
62957;SDS011;49056;48.352;10.926;2022-10-31T16:46:27;4.20;;;2.87;;
62957;SDS011;49056;48.352;10.926;2022-10-31T16:51:47;3.40;;;2.17;;
62957;SDS011;49056;48.352;10.926;2022-10-31T16:57:10;3.47;;;2.53;;
62957;SDS011;49056;48.352;10.926;2022-10-31T17:02:32;4.22;;;2.72;;
62957;SDS011;49056;48.352;10.926;2022-10-31T17:07:52;3.20;;;2.10;;
62957;SDS011;49056;48.352;10.926;2022-10-31T17:13:18;3.00;;;2.03;;
62957;SDS011;49056;48.352;10.926;2022-10-31T17:18:40;3.90;;;2.47;;
62957;SDS011;49056;48.352;10.926;2022-10-31T17:24:02;3.87;;;2.65;;
62957;SDS011;49056;48.352;10.926;2022-10-31T17:29:23;4.72;;;3.33;;
62957;SDS011;49056;48.352;10.926;2022-10-31T17:34:43;3.83;;;2.83;;
62957;SDS011;49056;48.352;10.926;2022-10-31T17:40:04;5.17;;;3.20;;
62957;SDS011;49056;48.352;10.926;2022-10-31T17:45:25;3.30;;;2.58;;
62957;SDS011;49056;48.352;10.926;2022-10-31T17:50:46;5.70;;;3.05;;
62957;SDS011;49056;48.352;10.926;2022-10-31T17:56:06;4.85;;;3.30;;
62957;SDS011;49056;48.352;10.926;2022-10-31T18:01:27;5.62;;;3.60;;
62957;SDS011;49056;48.352;10.926;2022-10-31T18:06:47;5.70;;;3.70;;
62957;SDS011;49056;48.352;10.926;2022-10-31T18:12:09;5.47;;;3.62;;
62957;SDS011;49056;48.352;10.926;2022-10-31T18:17:30;5.23;;;3.47;;
62957;SDS011;49056;48.352;10.926;2022-10-31T18:22:51;5.40;;;3.62;;
62957;SDS011;49056;48.352;10.926;2022-10-31T18:28:11;5.32;;;3.90;;
62957;SDS011;49056;48.352;10.926;2022-10-31T18:33:31;5.70;;;3.90;;
62957;SDS011;49056;48.352;10.926;2022-10-31T18:38:52;4.90;;;3.47;;
62957;SDS011;49056;48.352;10.926;2022-10-31T18:44:13;5.90;;;3.58;;
62957;SDS011;49056;48.352;10.926;2022-10-31T18:49:33;4.65;;;3.25;;
62957;SDS011;49056;48.352;10.926;2022-10-31T18:54:53;5.97;;;4.43;;
62957;SDS011;49056;48.352;10.926;2022-10-31T19:00:14;5.43;;;3.57;;
62957;SDS011;49056;48.352;10.926;2022-10-31T19:05:36;5.05;;;4.00;;
62957;SDS011;49056;48.352;10.926;2022-10-31T19:11:07;4.93;;;3.80;;
62957;SDS011;49056;48.352;10.926;2022-10-31T19:16:28;6.82;;;4.43;;
62957;SDS011;49056;48.352;10.926;2022-10-31T19:21:48;6.87;;;4.82;;
62957;SDS011;49056;48.352;10.926;2022-10-31T19:27:09;5.55;;;4.82;;
62957;SDS011;49056;48.352;10.926;2022-10-31T19:32:29;5.43;;;4.03;;
62957;SDS011;49056;48.352;10.926;2022-10-31T19:37:49;6.18;;;4.68;;
62957;SDS011;49056;48.352;10.926;2022-10-31T19:43:10;6.40;;;4.23;;
62957;SDS011;49056;48.352;10.926;2022-10-31T19:48:30;6.97;;;4.23;;
62957;SDS011;49056;48.352;10.926;2022-10-31T19:53:51;6.43;;;4.50;;
62957;SDS011;49056;48.352;10.926;2022-10-31T19:59:12;6.62;;;3.92;;
62957;SDS011;49056;48.352;10.926;2022-10-31T20:04:33;5.87;;;4.32;;
62957;SDS011;49056;48.352;10.926;2022-10-31T20:09:53;6.10;;;4.73;;
62957;SDS011;49056;48.352;10.926;2022-10-31T20:15:14;6.10;;;4.30;;
62957;SDS011;49056;48.352;10.926;2022-10-31T20:20:34;6.03;;;4.37;;
62957;SDS011;49056;48.352;10.926;2022-10-31T20:25:54;6.45;;;4.70;;
62957;SDS011;49056;48.352;10.926;2022-10-31T20:31:16;6.37;;;4.67;;
62957;SDS011;49056;48.352;10.926;2022-10-31T20:36:36;4.43;;;3.80;;
62957;SDS011;49056;48.352;10.926;2022-10-31T20:41:57;5.22;;;4.15;;
62957;SDS011;49056;48.352;10.926;2022-10-31T20:47:18;5.03;;;3.53;;
62957;SDS011;49056;48.352;10.926;2022-10-31T20:52:38;5.93;;;3.75;;
62957;SDS011;49056;48.352;10.926;2022-10-31T20:57:59;6.35;;;3.60;;
62957;SDS011;49056;48.352;10.926;2022-10-31T21:03:20;5.93;;;3.70;;
62957;SDS011;49056;48.352;10.926;2022-10-31T21:08:40;4.37;;;3.13;;
62957;SDS011;49056;48.352;10.926;2022-10-31T21:14:01;4.62;;;3.12;;
62957;SDS011;49056;48.352;10.926;2022-10-31T21:19:21;6.67;;;4.03;;
62957;SDS011;49056;48.352;10.926;2022-10-31T21:24:42;5.30;;;3.40;;
62957;SDS011;49056;48.352;10.926;2022-10-31T21:30:02;4.75;;;3.37;;
62957;SDS011;49056;48.352;10.926;2022-10-31T21:35:23;5.28;;;3.30;;
62957;SDS011;49056;48.352;10.926;2022-10-31T21:40:43;3.87;;;3.20;;
62957;SDS011;49056;48.352;10.926;2022-10-31T21:46:05;5.37;;;3.83;;
62957;SDS011;49056;48.352;10.926;2022-10-31T21:51:29;4.28;;;2.62;;
62957;SDS011;49056;48.352;10.926;2022-10-31T21:56:50;4.70;;;3.03;;
62957;SDS011;49056;48.352;10.926;2022-10-31T22:02:10;4.72;;;3.20;;
62957;SDS011;49056;48.352;10.926;2022-10-31T22:07:31;6.40;;;3.10;;
62957;SDS011;49056;48.352;10.926;2022-10-31T22:12:52;4.53;;;3.00;;
62957;SDS011;49056;48.352;10.926;2022-10-31T22:18:12;4.12;;;3.00;;
62957;SDS011;49056;48.352;10.926;2022-10-31T22:23:33;3.93;;;2.57;;
62957;SDS011;49056;48.352;10.926;2022-10-31T22:28:54;3.92;;;3.10;;
62957;SDS011;49056;48.352;10.926;2022-10-31T22:34:15;3.50;;;2.70;;
62957;SDS011;49056;48.352;10.926;2022-10-31T22:39:36;3.87;;;2.72;;
62957;SDS011;49056;48.352;10.926;2022-10-31T22:44:56;5.35;;;3.22;;
62957;SDS011;49056;48.352;10.926;2022-10-31T22:50:16;4.07;;;2.83;;
62957;SDS011;49056;48.352;10.926;2022-10-31T22:55:37;3.83;;;2.60;;
62957;SDS011;49056;48.352;10.926;2022-10-31T23:00:58;3.90;;;2.72;;
62957;SDS011;49056;48.352;10.926;2022-10-31T23:06:22;3.80;;;2.30;;
62957;SDS011;49056;48.352;10.926;2022-10-31T23:11:42;4.72;;;2.95;;
62957;SDS011;49056;48.352;10.926;2022-10-31T23:17:03;4.60;;;3.05;;
62957;SDS011;49056;48.352;10.926;2022-10-31T23:22:23;3.90;;;3.30;;
62957;SDS011;49056;48.352;10.926;2022-10-31T23:27:44;4.53;;;2.70;;
62957;SDS011;49056;48.352;10.926;2022-10-31T23:33:04;4.65;;;3.00;;
62957;SDS011;49056;48.352;10.926;2022-10-31T23:38:25;5.40;;;3.27;;
62957;SDS011;49056;48.352;10.926;2022-10-31T23:43:45;4.87;;;3.17;;
62957;SDS011;49056;48.352;10.926;2022-10-31T23:49:07;5.22;;;3.08;;
62957;SDS011;49056;48.352;10.926;2022-10-31T23:54:28;4.65;;;3.10;;
62957;SDS011;49056;48.352;10.926;2022-10-31T23:59:48;4.85;;;3.10;;
